Terminal Aerodrome Forecast
Issued by NWS

Home | Current Version | Previous Version | Text Only | Print | Product List | Glossary On
Versions: 1 2 3 4 5 6 7 8 9 10 11 12 13
000
FTUS45 KVEF 250520
TAFEED
TAF
KEED 250520Z 2506/2606 22018G26KT P6SM SCT200
     FM251500 22015G25KT P6SM SCT100 BKN200
     FM251900 24022G32KT P6SM SCT100 BKN150=

USA.gov is the U.S. government's official web portal to all federal, state and local government web resources and services.